Terminal Aerodrome Forecast
Issued by NWS Tuscon, AZ

Home | Current Version | Previous Version | Text Only | Print | Product List | Glossary On
Versions: 1 2 3 4 5 6 7 8 9 10 11 12
000
FTUS45 KTWC 072325
TAFTUS
TAF
KTUS 072325Z 0800/0824 34008KT P6SM FEW150 OVC250
     FM080300 24004KT P6SM BKN200
     FM080800 15006KT P6SM SCT200
     FM082000 35007KT P6SM FEW080 SCT250=

USA.gov is the U.S. government's official web portal to all federal, state and local government web resources and services.